Time;durP1;ratioP1;P1;durP2;ratioP2;P2;SDS_P1;SDS_P2;PMS_P1;PMS_P2;Temp;Humidity;BMP_temperature;BMP_pressure;BME280_temperature;BME280_humidity;BME280_pressure;Samples;Min_cycle;Max_cycle;Signal;HPM_P1;HPM_P2
2022/12/17 13:08:24;;;;;;;21.57;19.37;;;14.40;49.20;;;;;;5026625;28;20415;-68
2022/12/17 13:10:52;;;;;;;22.30;19.60;;;14.20;48.10;;;;;;5014158;28;20877;-68
2022/12/17 13:13:21;;;;;;;23.20;20.63;;;13.60;46.90;;;;;;5028592;28;20933;-68
2022/12/17 13:15:50;;;;;;;24.03;20.63;;;13.00;47.30;;;;;;5033468;28;20459;-68
2022/12/17 13:18:25;;;;;;;22.37;19.97;;;12.20;48.10;;;;;;5030858;28;20531;-75
2022/12/17 13:21:04;;;;;;;25.93;20.70;;;11.50;49.10;;;;;;5031651;28;20482;-69
2022/12/17 13:23:33;;;;;;;23.40;20.57;;;10.90;50.00;;;;;;5026017;28;20810;-68
2022/12/17 13:26:17;;;;;;;26.20;20.63;;;10.40;51.50;;;;;;5020725;28;20477;-69
2022/12/17 13:28:57;;;;;;;25.47;20.50;;;9.90;52.90;;;;;;5021656;28;20455;-68
2022/12/17 13:31:45;;;;;;;23.77;20.50;;;9.40;54.70;;;;;;5024839;28;20811;-72
2022/12/17 13:34:16;;;;;;;22.30;19.90;;;8.80;56.50;;;;;;5024593;28;20446;-72
2022/12/17 13:37:08;;;;;;;25.10;21.53;;;8.40;57.50;;;;;;5016551;28;20380;-72
2022/12/17 13:39:45;;;;;;;24.10;20.10;;;8.10;58.40;;;;;;5031770;28;20447;-68
2022/12/17 13:42:24;;;;;;;23.63;19.00;;;7.90;59.30;;;;;;5031890;28;20439;-68
2022/12/17 13:44:50;;;;;;;26.83;18.67;;;7.60;60.60;;;;;;5031503;28;20519;-69
2022/12/17 13:47:24;;;;;;;25.53;19.20;;;7.40;61.10;;;;;;5031904;28;20415;-69
2022/12/17 13:49:56;;;;;;;23.37;18.50;;;7.20;61.30;;;;;;5030766;28;20454;-68
2022/12/17 13:52:26;;;;;;;21.63;17.67;;;7.00;61.80;;;;;;5030716;28;20435;-78
2022/12/17 13:54:53;;;;;;;25.07;17.90;;;6.90;62.30;;;;;;5030608;28;20954;-68
2022/12/17 13:57:24;;;;;;;25.67;18.10;;;6.70;63.10;;;;;;5030226;28;20433;-77
2022/12/17 13:59:52;;;;;;;27.80;19.17;;;6.60;64.10;;;;;;5030963;28;20488;-68
2022/12/17 14:02:32;;;;;;;23.60;18.30;;;6.50;64.40;;;;;;5019639;28;20542;-77
2022/12/17 14:05:00;;;;;;;24.60;18.90;;;6.30;64.90;;;;;;5026320;28;20460;-68
2022/12/17 14:07:27;;;;;;;22.90;18.20;;;6.20;65.40;;;;;;5030265;28;20698;-68
2022/12/17 14:09:54;;;;;;;27.83;18.42;;;6.20;65.90;;;;;;5030996;28;20454;-68
2022/12/17 14:12:24;;;;;;;23.65;18.17;;;6.00;66.40;;;;;;5031838;28;20187;-68
2022/12/17 14:15:03;;;;;;;21.20;17.25;;;5.90;67.00;;;;;;5032741;28;20262;-68
2022/12/17 14:17:36;;;;;;;25.75;17.58;;;5.80;67.50;;;;;;5031915;28;20606;-68
2022/12/17 14:20:28;;;;;;;21.05;17.58;;;5.70;68.10;;;;;;5030523;28;20191;-68
2022/12/17 14:22:58;;;;;;;22.42;18.30;;;5.50;69.30;;;;;;5018865;28;20241;-68
2022/12/17 14:25:31;;;;;;;25.33;19.02;;;5.40;69.60;;;;;;5030135;28;20189;-68
2022/12/17 14:28:01;;;;;;;22.67;19.27;;;5.30;70.30;;;;;;5032739;28;20588;-68
2022/12/17 14:30:34;;;;;;;26.83;19.23;;;5.20;71.20;;;;;;5022668;28;20167;-68
2022/12/17 14:33:00;;;;;;;26.50;20.17;;;5.10;72.50;;;;;;5013117;28;20247;-68
2022/12/17 14:35:29;;;;;;;27.47;19.37;;;5.10;73.70;;;;;;5032147;28;20201;-68
2022/12/17 14:37:55;;;;;;;27.90;20.15;;;4.90;73.90;;;;;;5030806;28;20285;-68
2022/12/17 14:40:23;;;;;;;24.20;18.83;;;4.80;73.10;;;;;;5030676;28;20261;-76
2022/12/17 14:42:50;;;;;;;28.42;18.05;;;4.60;72.70;;;;;;5032397;28;20409;-68
2022/12/17 14:45:15;;;;;;;23.77;17.33;;;4.50;74.60;;;;;;5031785;28;20185;-68
2022/12/17 14:47:53;;;;;;;25.07;18.00;;;4.40;75.30;;;;;;5028496;28;20271;-68
2022/12/17 14:50:19;;;;;;;25.65;18.55;;;4.30;75.90;;;;;;5029152;28;20222;-68
2022/12/17 14:52:48;;;;;;;23.87;19.13;;;4.20;76.40;;;;;;5028063;28;20202;-67
2022/12/17 14:55:32;;;;;;;36.55;20.48;;;4.10;78.20;;;;;;5030652;28;20179;-68
2022/12/17 14:58:10;;;;;;;25.85;20.73;;;4.00;77.80;;;;;;5029775;28;20248;-68
2022/12/17 15:00:44;;;;;;;24.98;19.30;;;3.90;77.90;;;;;;5027511;28;20228;-69
2022/12/17 15:03:24;;;;;;;30.55;20.35;;;3.90;78.70;;;;;;5029812;28;20181;-68
2022/12/17 15:05:54;;;;;;;29.35;20.35;;;3.90;79.40;;;;;;5030658;28;20631;-68
2022/12/17 15:08:20;;;;;;;27.83;20.27;;;3.90;79.90;;;;;;5042865;28;20216;-68
2022/12/17 15:10:46;;;;;;;29.75;20.50;;;3.80;79.10;;;;;;5031082;28;20179;-68
2022/12/17 15:13:12;;;;;;;27.00;20.25;;;3.70;80.00;;;;;;5029199;28;20178;-68
2022/12/17 15:15:37;;;;;;;26.37;19.90;;;3.70;81.40;;;;;;5026407;28;20233;-68
2022/12/17 15:18:03;;;;;;;28.40;20.97;;;3.70;81.90;;;;;;5045928;28;20201;-68
2022/12/17 15:20:30;;;;;;;28.17;20.57;;;3.70;81.50;;;;;;5030703;28;20214;-68
2022/12/17 15:22:55;;;;;;;22.38;18.85;;;3.60;81.10;;;;;;5034330;28;20610;-68
2022/12/17 15:25:21;;;;;;;29.23;19.77;;;3.60;81.70;;;;;;5041587;28;20269;-68
2022/12/17 15:27:47;;;;;;;25.90;18.83;;;3.60;80.50;;;;;;5035580;28;20210;-68
2022/12/17 15:30:15;;;;;;;25.83;19.30;;;3.50;79.90;;;;;;5034119;28;20217;-68
2022/12/17 15:32:41;;;;;;;25.20;19.30;;;3.50;79.90;;;;;;5032199;28;20268;-68
2022/12/17 15:35:08;;;;;;;26.58;19.75;;;3.40;80.10;;;;;;5035833;28;20268;-68
2022/12/17 15:37:33;;;;;;;29.08;20.48;;;3.30;80.10;;;;;;5032594;28;20216;-68
2022/12/17 15:39:59;;;;;;;29.30;20.77;;;3.30;82.40;;;;;;5033000;28;20538;-68
2022/12/17 15:45:09;;;;;;;28.92;21.17;;;3.10;81.80;;;;;;5034354;28;20186;-68
2022/12/17 15:47:35;;;;;;;23.87;19.37;;;3.10;84.40;;;;;;5033487;28;20514;-68
2022/12/17 15:50:01;;;;;;;26.73;19.00;;;3.10;85.50;;;;;;5033041;28;20185;-68
2022/12/17 15:52:27;;;;;;;17.88;13.65;;;3.00;85.00;;;;;;5034470;28;20178;-79
2022/12/17 15:54:52;;;;;;;14.30;11.43;;;3.00;84.30;;;;;;5032481;28;20235;-68
2022/12/17 15:57:18;;;;;;;12.93;8.90;;;3.10;82.70;;;;;;5032176;28;20633;-68
2022/12/17 15:59:44;;;;;;;11.60;9.97;;;2.90;82.60;;;;;;5038872;28;20560;-68
2022/12/17 16:02:10;;;;;;;13.07;11.07;;;3.00;82.50;;;;;;5032960;28;20181;-68
2022/12/17 16:04:36;;;;;;;14.73;11.75;;;3.00;81.10;;;;;;5015825;28;20225;-68
2022/12/17 16:07:03;;;;;;;15.18;11.38;;;3.10;80.10;;;;;;5033064;28;20204;-68
2022/12/17 16:09:29;;;;;;;14.35;10.95;;;3.10;79.60;;;;;;5034010;28;20525;-68
2022/12/17 16:11:55;;;;;;;12.33;10.40;;;3.10;79.60;;;;;;5034407;28;20185;-68
2022/12/17 16:14:22;;;;;;;12.40;11.00;;;3.00;79.40;;;;;;5034837;28;20404;-67
2022/12/17 16:16:49;;;;;;;11.80;9.57;;;2.90;77.60;;;;;;5034533;28;20264;-68
2022/12/17 16:19:15;;;;;;;14.05;10.32;;;2.90;78.20;;;;;;5035071;28;20217;-67
2022/12/17 16:21:41;;;;;;;13.60;11.03;;;2.80;78.30;;;;;;5031438;28;20189;-68
2022/12/17 16:24:06;;;;;;;16.73;12.67;;;2.80;78.10;;;;;;5033248;28;20467;-72
2022/12/17 16:26:32;;;;;;;15.13;12.03;;;2.70;78.40;;;;;;5032881;28;20228;-73
2022/12/17 16:28:58;;;;;;;13.60;10.40;;;2.70;79.50;;;;;;5032881;28;20181;-73
2022/12/17 16:31:24;;;;;;;21.92;14.05;;;2.70;79.80;;;;;;5032861;28;20211;-73
2022/12/17 16:33:50;;;;;;;17.55;14.25;;;2.60;80.50;;;;;;5033087;28;20189;-72
2022/12/17 16:36:19;;;;;;;19.60;14.67;;;2.60;80.40;;;;;;5034735;28;20180;-73
2022/12/17 16:38:47;;;;;;;13.07;11.60;;;2.60;80.90;;;;;;5030800;28;20239;-70
2022/12/17 16:41:14;;;;;;;11.90;10.15;;;2.50;81.00;;;;;;5034503;28;20185;-72
2022/12/17 16:43:40;;;;;;;11.00;9.85;;;2.50;80.50;;;;;;5031322;28;20264;-72
2022/12/17 16:46:27;;;;;;;11.82;8.95;;;2.50;80.20;;;;;;5029875;28;20181;-73
2022/12/17 16:48:54;;;;;;;10.63;9.52;;;2.50;79.40;;;;;;5033009;28;20204;-72
2022/12/17 16:51:21;;;;;;;9.52;8.30;;;2.60;79.20;;;;;;5031227;28;20552;-69
2022/12/17 16:53:47;;;;;;;11.43;9.93;;;2.60;79.30;;;;;;5033535;28;20521;-69
2022/12/17 16:56:18;;;;;;;13.87;10.03;;;2.60;78.80;;;;;;5034481;28;20280;-69
2022/12/17 16:58:44;;;;;;;11.57;10.48;;;2.60;78.60;;;;;;5026419;28;20206;-70
2022/12/17 17:01:10;;;;;;;10.53;9.47;;;2.60;78.50;;;;;;5023354;28;20637;-69
2022/12/17 17:03:40;;;;;;;299.42;133.15;;;2.50;78.50;;;;;;5022777;28;20423;-70
2022/12/17 17:06:07;;;;;;;51.03;31.17;;;2.50;79.30;;;;;;5025849;28;20636;-70
2022/12/17 17:08:37;;;;;;;17.20;10.88;;;2.40;79.90;;;;;;5024611;28;20186;-76
2022/12/17 17:11:09;;;;;;;12.52;11.15;;;2.40;79.60;;;;;;5022644;28;20193;-77
2022/12/17 17:13:35;;;;;;;15.32;11.25;;;2.30;79.10;;;;;;5019799;28;20183;-70
2022/12/17 17:16:01;;;;;;;16.48;13.75;;;2.30;79.80;;;;;;5024898;28;20548;-70
2022/12/17 17:18:26;;;;;;;14.10;12.60;;;2.20;79.40;;;;;;5024394;28;20204;-70
2022/12/17 17:20:52;;;;;;;19.20;12.60;;;2.20;80.20;;;;;;5027176;28;20192;-69
2022/12/17 17:23:18;;;;;;;16.10;12.57;;;2.10;80.50;;;;;;5027662;28;20228;-69
2022/12/17 17:25:43;;;;;;;16.30;12.67;;;2.10;80.70;;;;;;5026710;28;20272;-69
2022/12/17 17:28:09;;;;;;;16.90;13.53;;;2.00;78.80;;;;;;5029257;28;20237;-69
2022/12/17 17:30:35;;;;;;;19.50;13.77;;;1.90;79.40;;;;;;5021490;28;20180;-71
2022/12/17 17:33:00;;;;;;;20.10;16.03;;;1.90;81.30;;;;;;5023283;28;20196;-69
2022/12/17 17:35:26;;;;;;;20.83;16.10;;;1.80;80.20;;;;;;5026393;28;20177;-70
2022/12/17 17:37:54;;;;;;;22.35;16.52;;;1.90;81.90;;;;;;5030404;28;20232;-69
2022/12/17 17:40:20;;;;;;;19.33;16.70;;;1.80;82.10;;;;;;5028918;28;20290;-69
2022/12/17 17:42:46;;;;;;;21.10;16.50;;;1.70;83.20;;;;;;5026264;28;20182;-74
2022/12/17 17:45:11;;;;;;;28.23;19.60;;;1.70;82.70;;;;;;5028347;28;20527;-69
2022/12/17 17:47:37;;;;;;;27.77;19.87;;;1.70;83.40;;;;;;5026901;28;20274;-70
2022/12/17 17:50:03;;;;;;;24.20;17.93;;;1.70;85.90;;;;;;5024925;28;20180;-69
2022/12/17 17:52:29;;;;;;;496.20;256.40;;;1.70;86.00;;;;;;5025029;28;20234;-77
2022/12/17 17:54:54;;;;;;;287.70;138.90;;;1.60;87.40;;;;;;5023730;28;20502;-70
2022/12/17 17:57:20;;;;;;;52.30;31.60;;;1.60;89.60;;;;;;5022408;28;20256;-69
2022/12/17 17:59:46;;;;;;;25.80;19.77;;;1.70;88.40;;;;;;5023910;28;20246;-69
2022/12/17 18:02:11;;;;;;;25.37;18.67;;;1.70;86.90;;;;;;5025494;28;20626;-69
2022/12/17 18:04:38;;;;;;;28.10;19.93;;;1.60;85.60;;;;;;5030247;28;20187;-71
2022/12/17 18:07:04;;;;;;;29.20;19.65;;;1.60;85.80;;;;;;5027500;28;20176;-70
2022/12/17 18:09:30;;;;;;;28.03;20.17;;;1.60;85.80;;;;;;5028348;28;20500;-68
2022/12/17 18:11:55;;;;;;;31.43;22.70;;;1.50;84.80;;;;;;5026498;28;20184;-68
2022/12/17 18:14:21;;;;;;;27.83;22.17;;;1.50;85.20;;;;;;5027583;28;20678;-71
2022/12/17 18:16:47;;;;;;;33.37;23.30;;;1.50;85.80;;;;;;5023659;28;20193;-68
2022/12/17 18:19:18;;;;;;;33.10;23.73;;;1.40;86.20;;;;;;5023017;28;20555;-68
2022/12/17 18:21:46;;;;;;;38.97;23.58;;;1.40;86.10;;;;;;5021701;28;20516;-70
2022/12/17 18:24:17;;;;;;;33.60;24.05;;;1.30;86.30;;;;;;5024362;28;20588;-71
2022/12/17 18:26:45;;;;;;;29.27;22.23;;;1.30;86.40;;;;;;5017807;28;20187;-67
2022/12/17 18:29:22;;;;;;;34.45;22.50;;;1.30;86.70;;;;;;5022885;28;20179;-70
2022/12/17 18:31:49;;;;;;;26.27;21.67;;;1.30;86.30;;;;;;5024098;28;20417;-70
2022/12/17 18:34:17;;;;;;;25.05;18.98;;;1.20;88.00;;;;;;5023196;28;20176;-70
2022/12/17 18:36:44;;;;;;;27.33;18.80;;;1.30;89.00;;;;;;5020966;28;20214;-70
2022/12/17 18:39:16;;;;;;;24.27;18.88;;;1.30;88.80;;;;;;5024495;28;20206;-74
2022/12/17 18:44:30;;;;;;;22.75;16.20;;;1.20;87.90;;;;;;5024665;28;20558;-81
2022/12/17 18:46:56;;;;;;;24.80;16.77;;;1.20;86.00;;;;;;5028403;28;20178;-70
2022/12/17 18:49:23;;;;;;;26.53;17.47;;;1.10;87.20;;;;;;5025549;28;20600;-75
2022/12/17 18:51:49;;;;;;;29.27;21.60;;;1.10;87.80;;;;;;5026420;28;20917;-71
2022/12/17 18:54:21;;;;;;;36.53;24.67;;;1.10;88.10;;;;;;5028596;28;20183;-70
2022/12/17 18:56:47;;;;;;;39.85;25.00;;;1.00;88.50;;;;;;5028696;28;20193;-70
2022/12/17 18:59:17;;;;;;;24.93;17.33;;;1.00;89.00;;;;;;5033991;28;20206;-71
2022/12/17 19:01:44;;;;;;;432.65;226.27;;;1.00;90.10;;;;;;5024729;28;20465;-71
2022/12/17 19:04:13;;;;;;;337.48;184.52;;;1.00;91.10;;;;;;5031320;28;20194;-72
2022/12/17 19:06:39;;;;;;;24.40;17.83;;;1.10;91.60;;;;;;5026572;28;20960;-69
2022/12/17 19:09:07;;;;;;;16.20;11.43;;;1.20;91.70;;;;;;5025821;28;20227;-70
2022/12/17 19:11:34;;;;;;;13.75;10.63;;;1.30;91.00;;;;;;5027453;28;20184;-73
2022/12/17 19:14:00;;;;;;;16.05;13.35;;;1.20;91.00;;;;;;5025235;28;20582;-70
2022/12/17 19:16:28;;;;;;;12.13;10.23;;;1.40;90.90;;;;;;5029708;28;20171;-70
2022/12/17 19:18:56;;;;;;;11.13;9.48;;;1.40;90.50;;;;;;5027675;28;20211;-68
2022/12/17 19:21:23;;;;;;;17.08;13.45;;;1.50;90.30;;;;;;5029219;28;20191;-68
2022/12/17 19:23:54;;;;;;;17.08;10.63;;;1.50;90.10;;;;;;5024727;28;20733;-69
2022/12/17 19:26:21;;;;;;;15.48;10.85;;;1.50;89.20;;;;;;5022537;28;20262;-75
2022/12/17 19:28:50;;;;;;;16.13;11.13;;;1.60;89.30;;;;;;5022556;28;20292;-68
2022/12/17 19:31:18;;;;;;;11.13;9.55;;;1.70;88.60;;;;;;5022908;28;20181;-69
2022/12/17 19:33:44;;;;;;;14.80;10.88;;;1.70;88.30;;;;;;5023827;28;20189;-75
2022/12/17 19:36:16;;;;;;;12.85;10.90;;;1.70;87.80;;;;;;5043632;28;20180;-68
2022/12/17 19:38:42;;;;;;;11.05;9.65;;;1.60;87.60;;;;;;5025063;28;20324;-71
2022/12/17 19:41:14;;;;;;;13.32;10.82;;;1.60;88.10;;;;;;5021902;28;20188;-71
2022/12/17 19:43:41;;;;;;;11.57;8.98;;;1.60;88.60;;;;;;5025252;28;20179;-71
2022/12/17 19:46:12;;;;;;;12.40;8.20;;;1.60;88.80;;;;;;5025869;28;20598;-71
2022/12/17 19:48:39;;;;;;;11.57;8.50;;;1.50;89.60;;;;;;5017753;28;20267;-71
2022/12/17 19:51:07;;;;;;;7.95;7.15;;;1.60;89.60;;;;;;5020278;28;20176;-72
2022/12/17 19:53:35;;;;;;;12.85;9.57;;;1.60;89.70;;;;;;5022545;28;20251;-70
2022/12/17 19:56:18;;;;;;;9.75;8.10;;;1.70;89.50;;;;;;5022123;28;20187;-68
2022/12/17 19:58:51;;;;;;;10.25;8.25;;;1.80;88.50;;;;;;5022050;28;20198;-71
2022/12/17 20:01:25;;;;;;;9.55;8.50;;;1.80;87.90;;;;;;5027137;28;20212;-70
2022/12/17 20:03:52;;;;;;;11.85;9.40;;;1.80;86.70;;;;;;5025747;28;20261;-68
2022/12/17 20:06:20;;;;;;;11.60;9.35;;;1.80;86.40;;;;;;5025848;28;20185;-75
2022/12/17 20:08:46;;;;;;;13.48;10.23;;;1.80;86.80;;;;;;5024504;28;20270;-69
2022/12/17 20:11:32;;;;;;;13.80;11.63;;;1.80;86.70;;;;;;5028525;28;20280;-68
2022/12/17 20:14:10;;;;;;;11.95;10.50;;;1.70;86.40;;;;;;5024563;28;21030;-67
2022/12/17 20:16:42;;;;;;;12.85;10.07;;;1.60;85.70;;;;;;5023761;28;20521;-67
2022/12/17 20:19:14;;;;;;;16.60;12.57;;;1.50;84.70;;;;;;5029074;28;20366;-69
2022/12/17 20:21:41;;;;;;;14.18;11.50;;;1.50;85.10;;;;;;5021772;28;20245;-69
2022/12/17 20:24:07;;;;;;;14.90;11.25;;;1.40;85.00;;;;;;5026266;28;20277;-70
2022/12/17 20:26:33;;;;;;;14.13;11.45;;;1.40;85.60;;;;;;5026592;28;20207;-69
2022/12/17 20:28:58;;;;;;;13.07;10.30;;;1.30;85.40;;;;;;5024952;28;20182;-69
2022/12/17 20:31:25;;;;;;;14.20;11.00;;;1.30;85.60;;;;;;5026486;28;20179;-69
2022/12/17 20:33:51;;;;;;;12.75;10.27;;;1.20;85.70;;;;;;5024574;28;20458;-67
2022/12/17 20:36:18;;;;;;;12.17;10.00;;;1.20;86.20;;;;;;5026144;28;20213;-69
2022/12/17 20:38:44;;;;;;;623.30;323.23;;;1.20;86.90;;;;;;5023630;28;20199;-67
2022/12/17 20:41:14;;;;;;;669.33;347.33;;;1.10;87.20;;;;;;5023760;28;20175;-67
2022/12/17 20:43:41;;;;;;;35.80;21.33;;;1.10;87.80;;;;;;5025395;28;20185;-69
2022/12/17 20:46:08;;;;;;;14.05;9.98;;;1.10;87.20;;;;;;5028428;28;20187;-68
2022/12/17 20:48:35;;;;;;;13.60;9.90;;;1.10;86.50;;;;;;5023492;28;20228;-69
2022/12/17 20:51:09;;;;;;;12.10;9.80;;;1.00;86.80;;;;;;5026060;28;20207;-67
2022/12/17 20:53:35;;;;;;;11.70;9.88;;;1.00;87.50;;;;;;5024291;28;20632;-68
2022/12/17 20:56:03;;;;;;;10.60;9.60;;;1.00;87.50;;;;;;5025717;28;20179;-69
2022/12/17 20:58:29;;;;;;;11.65;10.10;;;1.00;87.30;;;;;;5025031;28;20484;-68
2022/12/17 21:01:22;;;;;;;11.00;9.77;;;0.90;86.30;;;;;;5026428;28;20179;-67
2022/12/17 21:03:50;;;;;;;10.80;9.70;;;0.80;86.20;;;;;;5027382;28;20187;-70
2022/12/17 21:06:19;;;;;;;10.98;9.88;;;0.80;86.90;;;;;;5024691;28;20258;-70
2022/12/17 21:08:48;;;;;;;11.07;9.93;;;0.80;87.80;;;;;;5026404;28;20187;-67
2022/12/17 21:11:15;;;;;;;11.43;9.50;;;0.70;87.40;;;;;;5026553;28;20191;-69
2022/12/17 21:13:41;;;;;;;16.65;9.90;;;0.70;87.80;;;;;;5022081;28;20199;-68
2022/12/17 21:16:12;;;;;;;13.43;10.03;;;0.70;87.60;;;;;;5026236;28;20657;-67
2022/12/17 21:18:38;;;;;;;12.50;10.32;;;0.70;87.70;;;;;;5025618;28;20454;-68
2022/12/17 21:21:07;;;;;;;12.90;11.60;;;0.60;88.00;;;;;;5026127;28;20206;-68
2022/12/17 21:23:34;;;;;;;12.88;10.88;;;0.60;88.70;;;;;;5026390;28;20309;-68
2022/12/17 21:26:05;;;;;;;16.77;10.70;;;0.60;89.20;;;;;;5024368;28;20213;-67
2022/12/17 21:28:32;;;;;;;11.75;10.23;;;0.60;89.30;;;;;;5023692;28;20182;-69
2022/12/17 21:30:58;;;;;;;12.68;10.30;;;0.60;89.80;;;;;;5027433;28;20274;-67
2022/12/17 21:33:24;;;;;;;10.63;9.23;;;0.60;90.00;;;;;;5027694;28;20257;-67
2022/12/17 21:36:04;;;;;;;11.32;9.15;;;0.60;89.90;;;;;;5027997;28;20183;-67
2022/12/17 21:38:30;;;;;;;9.90;8.77;;;0.60;88.70;;;;;;5025864;28;20240;-67
2022/12/17 21:41:10;;;;;;;10.18;8.65;;;0.60;88.80;;;;;;5029099;28;20198;-67
2022/12/17 21:43:36;;;;;;;10.95;9.15;;;0.60;88.60;;;;;;5030218;28;20870;-68
2022/12/17 21:46:03;;;;;;;11.65;9.05;;;0.50;87.60;;;;;;5030897;28;20183;-68
2022/12/17 21:48:28;;;;;;;12.32;9.88;;;0.50;88.00;;;;;;5029172;28;20189;-68
2022/12/17 21:50:54;;;;;;;11.37;9.67;;;0.50;88.50;;;;;;5031244;28;20178;-67
2022/12/17 21:53:20;;;;;;;12.37;10.13;;;0.40;89.20;;;;;;5029124;28;20183;-67
2022/12/17 21:55:47;;;;;;;13.43;10.07;;;0.40;90.10;;;;;;5031187;28;20209;-67
2022/12/17 21:58:14;;;;;;;12.70;10.52;;;0.40;90.00;;;;;;5031124;28;20209;-67
2022/12/17 22:00:40;;;;;;;17.80;11.95;;;0.40;90.20;;;;;;5032001;28;20197;-67
2022/12/17 22:03:06;;;;;;;12.35;10.20;;;0.40;90.30;;;;;;5029253;28;20207;-66
2022/12/17 22:05:34;;;;;;;12.47;8.47;;;0.50;90.40;;;;;;5031867;28;20170;-66
2022/12/17 22:07:59;;;;;;;12.15;8.93;;;0.50;90.50;;;;;;5032224;28;20440;-64
2022/12/17 22:10:25;;;;;;;11.53;7.33;;;0.50;90.80;;;;;;5030950;28;20179;-64
2022/12/17 22:15:38;;;;;;;7.93;6.85;;;0.60;91.40;;;;;;5025579;28;20202;-67
2022/12/17 22:18:04;;;;;;;7.65;6.90;;;0.70;91.30;;;;;;5029488;28;20694;-67
2022/12/17 22:20:30;;;;;;;9.60;7.05;;;0.80;91.10;;;;;;5026801;28;20210;-64
2022/12/17 22:22:56;;;;;;;7.70;6.38;;;0.80;90.80;;;;;;5026285;28;20299;-64
2022/12/17 22:25:22;;;;;;;8.40;7.57;;;0.90;90.90;;;;;;5028364;28;20182;-64
2022/12/17 22:27:48;;;;;;;11.10;8.77;;;0.90;90.30;;;;;;5026011;28;20272;-65
2022/12/17 22:33:01;;;;;;;7.45;6.68;;;0.90;90.70;;;;;;5026224;28;20208;-65
2022/12/17 22:35:32;;;;;;;7.97;7.00;;;1.00;90.60;;;;;;5026427;28;20646;-65
2022/12/17 22:37:58;;;;;;;7.50;6.78;;;1.10;90.60;;;;;;5024293;28;20697;-65
2022/12/17 22:40:24;;;;;;;10.20;7.20;;;1.10;90.20;;;;;;5027358;28;20186;-65
2022/12/17 22:45:40;;;;;;;8.95;6.18;;;1.20;89.60;;;;;;5017952;28;20183;-68
2022/12/17 22:48:07;;;;;;;8.02;5.90;;;1.20;89.00;;;;;;5020383;28;20198;-65
2022/12/17 22:50:33;;;;;;;9.27;6.93;;;1.20;87.70;;;;;;5021041;28;20612;-68
2022/12/17 22:52:59;;;;;;;7.28;6.50;;;1.10;86.60;;;;;;5018039;28;20202;-65
2022/12/17 22:55:25;;;;;;;9.90;7.53;;;1.10;86.60;;;;;;5018559;28;20178;-64
2022/12/17 22:57:51;;;;;;;17.63;7.77;;;1.00;87.20;;;;;;5017335;28;20663;-66
2022/12/17 23:00:24;;;;;;;7.67;6.33;;;0.90;86.50;;;;;;5022374;28;20429;-64
2022/12/17 23:02:52;;;;;;;9.40;7.00;;;0.80;86.30;;;;;;5021824;28;20324;-65
2022/12/17 23:05:18;;;;;;;10.35;9.25;;;0.70;86.00;;;;;;5017943;28;20526;-65
2022/12/17 23:07:44;;;;;;;8.65;7.75;;;0.70;86.40;;;;;;5018942;28;20178;-66
2022/12/17 23:10:10;;;;;;;9.73;7.00;;;0.60;87.20;;;;;;5020216;28;20177;-64
2022/12/17 23:12:51;;;;;;;10.93;8.63;;;0.50;90.90;;;;;;5017690;28;20179;-68
2022/12/17 23:15:25;;;;;;;13.15;9.20;;;0.50;91.30;;;;;;5019045;28;20414;-66
2022/12/17 23:17:54;;;;;;;23.85;15.30;;;0.60;91.40;;;;;;5018941;28;20791;-65
2022/12/17 23:20:20;;;;;;;17.48;12.60;;;0.70;91.30;;;;;;5019484;28;20946;-65
2022/12/17 23:22:46;;;;;;;11.20;8.70;;;0.80;91.40;;;;;;5017321;28;20287;-66
2022/12/17 23:25:13;;;;;;;9.30;8.00;;;0.90;90.30;;;;;;5018110;28;20180;-65
2022/12/17 23:27:39;;;;;;;10.13;7.60;;;0.90;89.60;;;;;;5015439;28;20191;-67
2022/12/17 23:30:05;;;;;;;9.40;7.90;;;0.90;88.90;;;;;;5024871;28;20194;-67
2022/12/17 23:32:31;;;;;;;7.93;7.03;;;0.90;88.30;;;;;;5029564;28;20574;-64
2022/12/17 23:34:57;;;;;;;9.50;7.88;;;0.90;88.50;;;;;;5028816;28;20245;-65
2022/12/17 23:37:23;;;;;;;7.23;6.53;;;1.00;88.60;;;;;;5022549;28;20228;-65
2022/12/17 23:39:48;;;;;;;6.87;6.27;;;1.00;88.60;;;;;;5025299;28;20708;-65
2022/12/17 23:42:14;;;;;;;10.50;8.17;;;0.90;88.40;;;;;;5026773;28;20179;-64
2022/12/17 23:44:40;;;;;;;9.57;8.15;;;1.00;88.40;;;;;;5029229;28;20182;-64
2022/12/17 23:47:06;;;;;;;7.10;5.73;;;1.00;88.20;;;;;;5026071;28;20171;-65
2022/12/17 23:49:32;;;;;;;8.33;6.20;;;1.00;87.90;;;;;;5033623;28;20179;-64
2022/12/17 23:51:57;;;;;;;9.20;7.60;;;1.00;88.40;;;;;;5033754;28;20186;-64
2022/12/17 23:54:23;;;;;;;9.10;6.20;;;1.10;88.40;;;;;;5034648;28;20426;-64
2022/12/17 23:56:49;;;;;;;8.40;6.95;;;1.10;88.30;;;;;;5034060;28;20232;-65
2022/12/17 23:59:15;;;;;;;9.10;7.67;;;1.20;88.10;;;;;;5035553;28;20207;-64
